Time;durP1;ratioP1;P1;durP2;ratioP2;P2;SDS_P1;SDS_P2;PMS_P1;PMS_P2;Temp;Humidity;BMP_temperature;BMP_pressure;BME280_temperature;BME280_humidity;BME280_pressure;Samples;Min_cycle;Max_cycle;Signal;HPM_P1;HPM_P2
2021/09/03 00:00:05;;;;;;;1.75;1.20;;;;;;;9.51;72.19;99610.38;1737831;81;21812;-65
2021/09/03 00:02:36;;;;;;;2.65;1.20;;;;;;;9.55;72.21;99613.33;1719427;81;21058;-66
2021/09/03 00:05:05;;;;;;;2.08;0.88;;;;;;;9.58;72.17;99623.15;1709916;81;21038;-69
2021/09/03 00:07:31;;;;;;;2.70;1.27;;;;;;;9.59;72.04;99614.31;1686249;83;21086;-66
2021/09/03 00:10:00;;;;;;;4.25;1.25;;;;;;;9.56;72.03;99615.77;1739687;81;21077;-67
2021/09/03 00:12:28;;;;;;;2.65;1.02;;;;;;;9.55;71.94;99613.33;1735009;81;21645;-68
2021/09/03 00:14:56;;;;;;;2.30;1.30;;;;;;;9.48;71.79;99609.05;1736469;81;21050;-66
2021/09/03 00:17:24;;;;;;;1.65;0.93;;;;;;;9.43;71.87;99613.32;1739814;80;21027;-65
2021/09/03 00:19:52;;;;;;;3.70;1.37;;;;;;;9.37;71.99;99606.29;1740112;80;20999;-69
2021/09/03 00:22:19;;;;;;;4.15;1.45;;;;;;;9.33;72.19;99605.30;1738034;81;21546;-66
2021/09/03 00:24:46;;;;;;;2.30;1.10;;;;;;;9.32;72.26;99610.53;1738097;81;21120;-67
2021/09/03 00:27:16;;;;;;;4.40;1.02;;;;;;;9.31;72.24;99614.41;1710882;81;21027;-65
2021/09/03 00:29:44;;;;;;;5.83;1.37;;;;;;;9.29;72.29;99612.53;1739221;81;21011;-68
2021/09/03 00:32:14;;;;;;;2.25;1.10;;;;;;;9.29;72.41;99613.34;1736970;81;21086;-65
2021/09/03 00:34:44;;;;;;;2.35;0.90;;;;;;;9.30;72.66;99616.92;1736893;81;22125;-66
2021/09/03 00:37:10;;;;;;;5.15;1.30;;;;;;;9.34;72.80;99617.91;1737447;81;21074;-66
2021/09/03 00:39:41;;;;;;;2.90;1.15;;;;;;;9.39;72.67;99615.05;1739529;81;21121;-65
2021/09/03 00:42:10;;;;;;;3.15;1.00;;;;;;;9.43;72.72;99616.07;1737243;81;21034;-66
2021/09/03 00:44:38;;;;;;;2.62;1.25;;;;;;;9.44;72.60;99615.48;1736766;81;21356;-64
2021/09/03 00:47:04;;;;;;;2.50;1.45;;;;;;;9.38;72.48;99607.94;1727221;81;21523;-66
2021/09/03 00:49:31;;;;;;;2.45;1.00;;;;;;;9.34;72.60;99607.73;1737947;81;21475;-67
2021/09/03 00:51:58;;;;;;;4.22;1.07;;;;;;;9.30;72.45;99605.92;1736919;81;21062;-67
2021/09/03 00:54:25;;;;;;;4.28;1.27;;;;;;;9.24;72.53;99608.78;1736208;81;21121;-66
2021/09/03 00:56:53;;;;;;;2.55;1.12;;;;;;;9.21;72.78;99604.45;1709353;81;20998;-66
2021/09/03 00:59:19;;;;;;;2.70;1.30;;;;;;;9.18;72.72;99608.62;1739988;81;21015;-66
2021/09/03 01:01:48;;;;;;;3.40;1.20;;;;;;;9.14;72.82;99606.26;1736666;81;21464;-65
2021/09/03 01:04:15;;;;;;;2.27;1.10;;;;;;;9.08;72.90;99604.17;1736966;81;21039;-66
2021/09/03 01:06:45;;;;;;;3.62;1.12;;;;;;;9.02;73.02;99604.03;1729726;81;21520;-66
2021/09/03 01:09:11;;;;;;;2.12;1.00;;;;;;;8.97;73.30;99603.56;1737618;81;21097;-66
2021/09/03 01:11:39;;;;;;;2.27;1.07;;;;;;;8.94;73.23;99612.42;1738699;81;21038;-67
2021/09/03 01:14:08;;;;;;;1.87;0.88;;;;;;;8.91;73.26;99608.09;1739589;81;21762;-66
2021/09/03 01:16:36;;;;;;;3.27;1.40;;;;;;;8.88;73.35;99610.36;1738554;81;21662;-67
2021/09/03 01:19:02;;;;;;;1.85;1.20;;;;;;;8.87;73.48;99615.58;1720907;81;21047;-65
2021/09/03 01:21:31;;;;;;;2.75;1.37;;;;;;;8.84;73.68;99617.58;1738821;81;22100;-65
2021/09/03 01:23:58;;;;;;;2.45;1.12;;;;;;;8.84;73.80;99616.75;1739161;81;21041;-66
2021/09/03 01:26:26;;;;;;;4.87;1.10;;;;;;;8.83;73.84;99611.02;1736457;81;21557;-65
2021/09/03 01:28:57;;;;;;;2.10;1.17;;;;;;;8.82;73.86;99615.69;1713751;81;21003;-67
2021/09/03 01:31:24;;;;;;;2.37;1.20;;;;;;;8.79;73.82;99613.55;1737655;81;21035;-66
2021/09/03 01:33:54;;;;;;;2.75;1.20;;;;;;;8.78;73.91;99616.61;1737858;81;21055;-66
2021/09/03 01:36:22;;;;;;;2.98;0.82;;;;;;;8.78;73.95;99611.11;1737096;81;21042;-67
2021/09/03 01:38:49;;;;;;;2.90;1.40;;;;;;;8.80;74.00;99617.12;1726052;81;21524;-67
2021/09/03 01:41:16;;;;;;;1.87;1.17;;;;;;;8.83;73.99;99606.89;1720167;82;21527;-66
2021/09/03 01:43:44;;;;;;;2.98;1.22;;;;;;;8.87;74.03;99609.30;1721363;82;21056;-65
2021/09/03 01:46:10;;;;;;;3.95;1.05;;;;;;;8.91;74.13;99608.09;1720482;82;21043;-68
2021/09/03 01:48:38;;;;;;;4.25;1.30;;;;;;;8.96;74.16;99605.24;1720074;82;20996;-67
2021/09/03 01:51:05;;;;;;;5.65;1.52;;;;;;;9.01;73.88;99610.08;1717145;82;21524;-67
2021/09/03 01:53:31;;;;;;;2.58;1.30;;;;;;;9.05;73.80;99603.41;1720379;82;21281;-67
2021/09/03 01:55:59;;;;;;;5.55;1.87;;;;;;;9.06;73.57;99598.16;1720886;82;21034;-66
2021/09/03 01:58:26;;;;;;;6.00;1.52;;;;;;;9.08;73.52;99599.22;1702328;82;21027;-65
2021/09/03 02:00:53;;;;;;;4.67;1.50;;;;;;;9.08;73.25;99599.22;1718658;82;21548;-66
2021/09/03 02:03:20;;;;;;;3.62;1.70;;;;;;;9.06;73.07;99600.11;1700528;82;21667;-66
2021/09/03 02:05:48;;;;;;;3.85;1.70;;;;;;;9.03;72.98;99601.53;1721524;82;21032;-65
2021/09/03 02:08:16;;;;;;;8.23;1.75;;;;;;;9.00;73.07;99599.40;1719882;82;21062;-65
2021/09/03 02:10:43;;;;;;;9.98;1.72;;;;;;;8.98;73.09;99601.63;1720503;82;21097;-64
2021/09/03 02:13:13;;;;;;;4.60;1.52;;;;;;;8.95;73.07;99601.70;1721576;82;21016;-65
2021/09/03 02:15:42;;;;;;;3.22;1.22;;;;;;;8.94;73.10;99607.51;1701333;82;21109;-65
2021/09/03 02:18:13;;;;;;;3.30;1.90;;;;;;;8.92;73.08;99602.32;1722391;81;20998;-67
2021/09/03 02:20:41;;;;;;;3.85;1.25;;;;;;;8.91;73.07;99604.80;1715899;82;21420;-67
2021/09/03 02:23:09;;;;;;;4.25;1.72;;;;;;;8.89;73.18;99603.73;1718347;82;21035;-68
2021/09/03 02:25:35;;;;;;;4.12;1.30;;;;;;;8.89;73.07;99602.36;1719661;82;21550;-66
2021/09/03 02:28:04;;;;;;;1.85;1.47;;;;;;;8.88;73.02;99605.41;1700746;82;21023;-66
2021/09/03 02:30:30;;;;;;;5.05;1.50;;;;;;;8.85;72.95;99607.41;1719946;82;21027;-69
2021/09/03 02:32:57;;;;;;;1.70;0.98;;;;;;;8.82;72.89;99611.56;1720483;82;21063;-68
2021/09/03 02:35:23;;;;;;;5.33;1.50;;;;;;;8.79;72.85;99610.81;1700926;82;21623;-66
2021/09/03 02:37:50;;;;;;;3.95;1.60;;;;;;;8.75;72.91;99609.23;1703702;82;22247;-67
2021/09/03 02:40:19;;;;;;;3.20;1.50;;;;;;;8.71;72.86;99613.72;1730173;82;21962;-67
2021/09/03 02:42:48;;;;;;;2.52;1.35;;;;;;;8.66;72.85;99608.88;1731091;82;21077;-66
2021/09/03 02:45:15;;;;;;;3.20;1.45;;;;;;;8.61;72.94;99612.55;1730896;82;21534;-66
2021/09/03 02:47:43;;;;;;;4.87;1.22;;;;;;;8.55;72.95;99613.74;1730980;82;21054;-65
2021/09/03 02:50:10;;;;;;;5.28;1.50;;;;;;;8.51;73.02;99620.40;1725462;82;21094;-67
2021/09/03 02:52:39;;;;;;;2.25;1.32;;;;;;;8.46;73.11;99607.55;1729533;82;21187;-66
2021/09/03 02:55:08;;;;;;;2.45;1.25;;;;;;;8.42;73.11;99612.05;1729088;82;21094;-65
2021/09/03 02:57:34;;;;;;;2.40;1.30;;;;;;;8.39;73.27;99611.28;1727861;82;21034;-67
2021/09/03 03:00:04;;;;;;;4.33;1.45;;;;;;;8.35;73.53;99610.24;1725972;81;21511;-65
2021/09/03 03:02:31;;;;;;;3.05;1.50;;;;;;;8.36;73.87;99613.27;1728626;82;22073;-67
2021/09/03 03:04:58;;;;;;;2.52;1.40;;;;;;;8.37;73.84;99613.51;1730623;82;21578;-65
2021/09/03 03:07:25;;;;;;;4.95;3.05;;;;;;;8.38;73.82;99612.37;1731262;82;21027;-67
2021/09/03 03:09:54;;;;;;;4.83;2.45;;;;;;;8.37;73.75;99611.59;1729001;82;21102;-68
2021/09/03 03:12:21;;;;;;;4.65;2.00;;;;;;;8.36;73.68;99617.38;1727488;82;21031;-65
2021/09/03 03:14:48;;;;;;;4.40;1.65;;;;;;;8.33;73.78;99616.59;1731600;82;21018;-68
2021/09/03 03:17:17;;;;;;;2.58;1.50;;;;;;;8.31;73.89;99612.78;1732336;80;21543;-65
2021/09/03 03:19:44;;;;;;;5.60;1.60;;;;;;;8.30;73.94;99619.39;1730455;82;21750;-68
2021/09/03 03:22:11;;;;;;;4.53;1.60;;;;;;;8.29;73.93;99617.75;1703586;82;21047;-66
2021/09/03 03:24:37;;;;;;;3.27;1.80;;;;;;;8.27;74.05;99619.42;1729089;82;21511;-66
2021/09/03 03:27:04;;;;;;;2.77;1.70;;;;;;;8.26;74.00;99623.30;1730650;82;21070;-67
2021/09/03 03:29:32;;;;;;;3.77;1.60;;;;;;;8.27;74.13;99624.12;1677416;82;21026;-69
2021/09/03 03:31:58;;;;;;;3.77;1.65;;;;;;;8.26;74.24;99620.55;1735528;80;21571;-66
2021/09/03 03:34:26;;;;;;;5.45;1.70;;;;;;;8.26;74.29;99621.92;1701894;82;21060;-67
2021/09/03 03:36:54;;;;;;;3.65;1.30;;;;;;;8.29;74.44;99625.98;1728278;82;21595;-66
2021/09/03 03:39:20;;;;;;;3.25;1.40;;;;;;;8.32;74.52;99616.34;1723425;82;21008;-68
2021/09/03 03:41:52;;;;;;;9.78;1.98;;;;;;;8.34;74.43;99619.03;1718644;82;21509;-66
2021/09/03 03:44:21;;;;;;;5.65;1.40;;;;;;;8.35;74.42;99614.36;1719640;82;21060;-66
2021/09/03 03:46:47;;;;;;;2.42;1.30;;;;;;;8.36;74.42;99617.38;1698978;82;21575;-68
2021/09/03 03:49:22;;;;;;;2.70;1.40;;;;;;;8.37;74.44;99623.94;1721585;82;21086;-69
2021/09/03 03:51:50;;;;;;;3.02;1.60;;;;;;;8.38;74.55;99624.73;1720105;82;21122;-67
2021/09/03 03:54:19;;;;;;;6.55;1.42;;;;;;;8.41;74.65;99625.50;1702088;82;21107;-66
2021/09/03 03:56:49;;;;;;;2.55;1.22;;;;;;;8.44;74.73;99629.58;1719625;82;21055;-66
2021/09/03 03:59:16;;;;;;;3.98;1.40;;;;;;;8.46;74.78;99628.73;1720416;82;21079;-66
2021/09/03 04:01:43;;;;;;;4.37;1.85;;;;;;;8.51;74.93;99632.17;1720791;81;21043;-66
2021/09/03 04:04:11;;;;;;;2.87;1.50;;;;;;;8.59;74.96;99626.59;1721506;82;21055;-66
2021/09/03 04:06:39;;;;;;;4.85;1.50;;;;;;;8.62;74.91;99631.47;1717862;82;21055;-66
2021/09/03 04:09:06;;;;;;;3.30;1.62;;;;;;;8.66;74.96;99628.11;1720909;82;22036;-66
2021/09/03 04:11:33;;;;;;;5.62;1.70;;;;;;;8.71;74.96;99632.95;1724170;81;21592;-67
2021/09/03 04:14:02;;;;;;;5.70;1.50;;;;;;;8.75;74.96;99633.16;1725712;81;21016;-66
2021/09/03 04:16:31;;;;;;;6.12;1.57;;;;;;;8.80;74.89;99630.86;1739770;81;21175;-66
2021/09/03 04:18:57;;;;;;;4.22;1.60;;;;;;;8.83;74.92;99626.13;1760394;81;21123;-65
2021/09/03 04:21:25;;;;;;;5.12;1.35;;;;;;;8.87;74.95;99625.78;1762957;81;20980;-68
2021/09/03 04:23:55;;;;;;;4.62;1.45;;;;;;;8.91;74.81;99625.41;1760617;80;21489;-67
2021/09/03 04:26:23;;;;;;;5.67;1.72;;;;;;;8.94;74.96;99622.04;1754708;81;21511;-66
2021/09/03 04:28:54;;;;;;;8.13;1.87;;;;;;;8.99;74.98;99631.55;1708971;83;21546;-67
2021/09/03 04:31:20;;;;;;;3.67;1.77;;;;;;;9.03;75.06;99619.95;1705563;84;21528;-68
2021/09/03 04:33:46;;;;;;;10.03;1.50;;;;;;;9.09;74.99;99617.36;1718313;82;21071;-65
2021/09/03 04:36:13;;;;;;;4.80;2.00;;;;;;;9.16;74.89;99615.56;1720464;82;21102;-66
2021/09/03 04:38:41;;;;;;;8.30;1.70;;;;;;;9.20;74.62;99615.19;1718581;81;21097;-66
2021/09/03 04:41:08;;;;;;;5.17;1.70;;;;;;;9.23;74.68;99622.26;1737909;81;20999;-66
2021/09/03 04:43:34;;;;;;;7.40;1.40;;;;;;;9.29;74.60;99616.09;1739263;81;21366;-67
2021/09/03 04:46:00;;;;;;;4.72;2.30;;;;;;;9.34;74.52;99617.36;1736420;81;21594;-65
2021/09/03 04:48:30;;;;;;;3.50;1.80;;;;;;;9.41;74.50;99618.31;1738061;81;21015;-67
2021/09/03 04:50:56;;;;;;;3.58;1.70;;;;;;;9.49;74.09;99618.13;1739307;81;21562;-66
2021/09/03 04:53:23;;;;;;;8.30;1.82;;;;;;;9.50;73.67;99623.89;1736814;81;21023;-65
2021/09/03 04:55:52;;;;;;;5.72;2.22;;;;;;;9.52;73.81;99626.33;1737391;81;21049;-66
2021/09/03 04:58:19;;;;;;;3.25;1.27;;;;;;;9.55;73.70;99627.08;1739277;81;21038;-65
2021/09/03 05:00:46;;;;;;;3.70;1.55;;;;;;;9.57;73.46;99624.26;1710195;81;21140;-67
2021/09/03 05:03:17;;;;;;;6.95;1.75;;;;;;;9.54;73.28;99629.01;1740705;81;21023;-66
2021/09/03 05:05:43;;;;;;;4.25;1.82;;;;;;;9.45;73.48;99628.92;1722472;83;21042;-65
2021/09/03 05:08:11;;;;;;;6.00;1.67;;;;;;;9.45;73.90;99626.17;1722085;83;21094;-66
2021/09/03 05:10:38;;;;;;;3.75;1.70;;;;;;;9.52;73.89;99634.58;1696266;80;21535;-66
2021/09/03 05:13:04;;;;;;;7.15;2.52;;;;;;;9.54;73.90;99630.94;1756738;80;21035;-65
2021/09/03 05:15:37;;;;;;;4.22;1.85;;;;;;;9.62;74.35;99631.59;1756809;80;21055;-68
2021/09/03 05:18:06;;;;;;;5.12;1.72;;;;;;;9.73;74.29;99625.28;1756568;80;21054;-65
2021/09/03 05:20:36;;;;;;;4.62;1.80;;;;;;;9.85;73.82;99627.47;1754087;80;21058;-66
2021/09/03 05:23:03;;;;;;;5.85;1.40;;;;;;;9.94;73.58;99629.73;1757530;80;21065;-67
2021/09/03 05:25:29;;;;;;;8.75;2.35;;;;;;;10.05;73.71;99628.08;1730609;80;21054;-66
2021/09/03 05:27:59;;;;;;;4.67;1.70;;;;;;;10.14;73.51;99627.59;1753053;80;21125;-67
2021/09/03 05:30:28;;;;;;;5.72;1.80;;;;;;;10.27;73.22;99626.45;1741214;80;21038;-66
2021/09/03 05:32:55;;;;;;;6.28;2.20;;;;;;;10.35;72.89;99628.44;1715544;83;22140;-66
2021/09/03 05:35:27;;;;;;;3.72;1.82;;;;;;;10.42;72.81;99632.12;1698410;82;21047;-66
2021/09/03 05:37:55;;;;;;;;;;;;;;;10.51;72.75;99628.06;1667286;85;21544;-69
2021/09/03 05:40:23;;;;;;;7.28;2.25;;;;;;;10.58;72.60;99620.13;1656515;85;20204;-67
2021/09/03 05:42:51;;;;;;;5.17;1.82;;;;;;;10.65;72.37;99614.98;1644509;84;21129;-68
2021/09/03 05:45:18;;;;;;;4.85;1.50;;;;;;;10.73;71.95;99620.86;1680285;85;21321;-67
2021/09/03 05:47:45;;;;;;;3.05;1.20;;;;;;;10.81;72.15;99618.69;1672641;84;21515;-66
2021/09/03 05:50:15;;;;;;;11.15;2.02;;;;;;;10.92;71.80;99615.06;1657205;83;21519;-65
2021/09/03 05:52:45;;;;;;;7.83;1.80;;;;;;;11.00;71.53;99610.16;1669270;84;21067;-67
2021/09/03 05:55:13;;;;;;;5.58;1.77;;;;;;;11.11;71.29;99612.59;1677129;85;21039;-72
2021/09/03 05:57:40;;;;;;;3.83;1.40;;;;;;;11.18;70.55;99615.13;1668603;84;21305;-69
2021/09/03 06:00:07;;;;;;;3.12;1.62;;;;;;;11.25;70.56;99620.17;1658342;85;21058;-67
2021/09/03 06:02:33;;;;;;;3.08;1.20;;;;;;;11.31;70.40;99615.33;1668313;84;21050;-67
2021/09/03 06:05:00;;;;;;;8.23;1.70;;;;;;;11.38;70.29;99614.84;1677415;85;21106;-69
2021/09/03 06:07:27;;;;;;;6.35;1.82;;;;;;;11.46;70.18;99607.70;1677745;84;21030;-66
2021/09/03 06:09:53;;;;;;;6.72;2.62;;;;;;;11.57;70.33;99608.98;1677837;85;21532;-68
2021/09/03 06:12:25;;;;;;;10.68;1.98;;;;;;;11.67;69.97;99614.19;1668425;84;21106;-67
2021/09/03 06:14:54;;;;;;;1.77;1.40;;;;;;;11.76;69.64;99606.46;1657379;85;21083;-68
2021/09/03 06:17:22;;;;;;;3.92;1.70;;;;;;;11.85;69.56;99608.66;1632750;85;21027;-66
2021/09/03 06:19:49;;;;;;;7.92;2.15;;;;;;;11.92;68.60;99610.34;1639119;84;21049;-67
2021/09/03 06:22:17;;;;;;;6.55;1.40;;;;;;;11.96;68.33;99610.50;1678119;85;21477;-68
2021/09/03 06:24:44;;;;;;;2.95;1.52;;;;;;;12.01;68.07;99599.28;1668517;84;21014;-66
2021/09/03 06:27:13;;;;;;;3.22;1.55;;;;;;;12.08;67.97;99605.69;1678135;85;21063;-66
2021/09/03 06:29:41;;;;;;;3.55;1.45;;;;;;;12.16;68.23;99602.12;1667696;84;21062;-67
2021/09/03 06:32:17;;;;;;;5.25;1.40;;;;;;;12.27;67.91;99601.77;1631826;85;21011;-69
2021/09/03 06:34:50;;;;;;;3.92;1.30;;;;;;;12.37;67.29;99606.12;1643561;84;21123;-70
2021/09/03 06:37:23;;;;;;;;;;;;;;;12.47;66.83;99604.97;1684118;85;21027;-65
2021/09/03 06:39:51;;;;;;;5.90;1.20;;;;;;;12.56;66.55;99603.53;1655509;85;20326;-66
2021/09/03 06:42:19;;;;;;;8.95;1.60;;;;;;;12.63;66.00;99601.89;1650038;85;21134;-66
2021/09/03 06:44:45;;;;;;;3.50;1.30;;;;;;;12.70;65.07;99601.38;1656422;85;21095;-67
2021/09/03 06:47:16;;;;;;;4.08;1.30;;;;;;;12.76;65.00;99608.91;1650879;85;21777;-66
2021/09/03 06:49:44;;;;;;;4.95;0.93;;;;;;;12.79;64.72;99599.95;1629864;85;21036;-67
2021/09/03 06:52:11;;;;;;;7.12;1.77;;;;;;;12.85;64.94;99602.75;1643262;84;21075;-66
2021/09/03 06:54:40;;;;;;;6.37;1.30;;;;;;;12.95;65.14;99606.30;1696889;84;21067;-68
2021/09/03 06:57:06;;;;;;;7.55;1.35;;;;;;;13.03;64.57;99600.69;1694856;84;21006;-69
2021/09/03 06:59:37;;;;;;;2.33;1.40;;;;;;;13.12;64.96;99607.55;1680154;84;21011;-67
2021/09/03 07:02:03;;;;;;;2.37;1.12;;;;;;;13.22;64.54;99610.49;1640587;85;21032;-67
2021/09/03 07:04:30;;;;;;;2.37;0.90;;;;;;;13.31;64.49;99597.98;1658887;84;21039;-66
2021/09/03 07:06:59;;;;;;;6.35;1.25;;;;;;;13.43;63.84;99601.97;1670376;84;21031;-69
2021/09/03 07:09:29;;;;;;;5.40;1.10;;;;;;;13.53;63.22;99598.83;1649654;85;21047;-66
2021/09/03 07:11:56;;;;;;;5.25;1.67;;;;;;;13.65;63.81;99599.46;1663292;85;21633;-65
2021/09/03 07:14:24;;;;;;;8.30;1.50;;;;;;;13.79;63.84;99603.33;1661551;85;21072;-69
2021/09/03 07:16:52;;;;;;;1.50;0.98;;;;;;;13.90;62.83;99595.98;1665178;85;21019;-67
2021/09/03 07:19:20;;;;;;;1.70;1.02;;;;;;;13.98;62.10;99593.70;1663473;85;21035;-66
2021/09/03 07:21:54;;;;;;;3.00;1.00;;;;;;;14.06;61.93;99595.58;1663636;85;21040;-68
2021/09/03 07:24:30;;;;;;;4.97;0.80;;;;;;;14.15;61.34;99589.13;1656366;85;21079;-65
2021/09/03 07:26:58;;;;;;;2.60;0.85;;;;;;;14.22;61.46;99591.59;1659495;85;21099;-67
2021/09/03 07:29:28;;;;;;;6.47;1.10;;;;;;;14.31;60.87;99584.53;1655812;85;21179;-68
2021/09/03 07:31:55;;;;;;;2.67;1.47;;;;;;;14.41;60.98;99586.64;1657485;85;20981;-63
2021/09/03 07:34:25;;;;;;;1.00;0.70;;;;;;;14.50;60.75;99587.92;1656752;85;21000;-66
2021/09/03 07:36:53;;;;;;;1.60;0.90;;;;;;;14.57;59.11;99584.80;1663402;85;21551;-65
2021/09/03 07:39:21;;;;;;;5.22;0.85;;;;;;;14.63;59.33;99582.62;1643871;83;22041;-66
2021/09/03 07:41:50;;;;;;;2.12;0.85;;;;;;;14.70;59.13;99575.92;1642842;85;21508;-67
2021/09/03 07:44:18;;;;;;;2.95;1.17;;;;;;;14.78;58.62;99576.95;1666624;85;21532;-67
2021/09/03 07:46:47;;;;;;;6.30;1.07;;;;;;;14.87;59.02;99574.66;1655989;85;21068;-66
2021/09/03 07:49:15;;;;;;;4.97;0.90;;;;;;;14.98;58.48;99577.78;1657625;85;21884;-67
2021/09/03 07:51:43;;;;;;;2.80;1.00;;;;;;;14.99;57.52;99570.50;1646415;85;20992;-65
2021/09/03 07:54:13;;;;;;;9.53;1.22;;;;;;;15.02;57.49;99568.41;1661490;85;21091;-65
2021/09/03 07:56:39;;;;;;;1.65;0.68;;;;;;;15.08;57.43;99568.38;1646755;85;21560;-67
2021/09/03 07:59:05;;;;;;;3.42;0.90;;;;;;;15.13;57.04;99563.77;1665029;85;21007;-66
2021/09/03 08:01:33;;;;;;;1.87;0.82;;;;;;;15.18;57.02;99565.70;1643251;85;21240;-66
2021/09/03 08:04:01;;;;;;;1.17;0.98;;;;;;;15.24;57.27;99559.91;1664779;85;21052;-66
2021/09/03 08:06:28;;;;;;;1.90;0.60;;;;;;;15.30;57.20;99553.76;1663531;85;21079;-67
2021/09/03 08:08:55;;;;;;;1.00;0.68;;;;;;;15.33;56.87;99557.81;1663241;85;21015;-66
2021/09/03 08:11:22;;;;;;;7.30;1.00;;;;;;;15.44;56.65;99550.59;1640036;85;21021;-67
2021/09/03 08:13:53;;;;;;;7.62;1.02;;;;;;;15.56;56.03;99541.41;1664573;85;21040;-65
2021/09/03 08:16:19;;;;;;;3.90;0.90;;;;;;;15.68;56.37;99545.29;1640353;85;21074;-69
2021/09/03 08:18:48;;;;;;;4.40;1.00;;;;;;;15.72;54.89;99551.77;1665214;85;21122;-67
2021/09/03 08:21:19;;;;;;;2.72;0.80;;;;;;;15.74;54.52;99537.52;1657965;85;21462;-67
2021/09/03 08:23:46;;;;;;;2.17;0.80;;;;;;;15.81;55.24;99540.50;1641177;85;21047;-71
2021/09/03 08:26:14;;;;;;;2.83;0.88;;;;;;;15.91;55.58;99537.78;1666471;85;21541;-66
2021/09/03 08:28:40;;;;;;;3.05;0.80;;;;;;;16.03;55.00;99534.97;1662486;85;21659;-70
2021/09/03 08:31:07;;;;;;;2.15;0.93;;;;;;;16.17;54.19;99544.23;1664208;85;21103;-67
2021/09/03 08:33:35;;;;;;;6.22;0.95;;;;;;;16.25;53.90;99534.69;1662417;85;21051;-68
2021/09/03 08:36:10;;;;;;;4.40;0.93;;;;;;;16.31;52.80;99534.64;1656903;85;21560;-68
2021/09/03 08:38:39;;;;;;;4.37;0.90;;;;;;;16.30;53.35;99532.47;1658277;85;21063;-71
2021/09/03 08:41:06;;;;;;;5.20;1.35;;;;;;;16.28;52.62;99539.53;1662801;85;21049;-69
2021/09/03 08:43:36;;;;;;;9.53;1.35;;;;;;;16.14;51.49;99533.02;1664564;85;21039;-70
2021/09/03 08:46:06;;;;;;;4.92;0.70;;;;;;;15.89;51.93;99524.81;1700590;83;21035;-67
2021/09/03 08:48:35;;;;;;;4.22;0.68;;;;;;;15.68;53.22;99521.69;1724025;82;21584;-71
2021/09/03 08:51:01;;;;;;;2.90;0.50;;;;;;;15.65;54.17;99522.39;1729060;82;21097;-67
2021/09/03 08:53:29;;;;;;;4.40;0.82;;;;;;;15.75;55.12;99506.61;1732212;81;20995;-68
2021/09/03 08:55:57;;;;;;;3.80;0.80;;;;;;;15.92;54.58;99524.09;1731933;82;21027;-70
2021/09/03 08:58:26;;;;;;;3.37;0.90;;;;;;;16.02;54.20;99522.22;1663408;85;21020;-68
2021/09/03 09:01:11;;;;;;;1.40;0.80;;;;;;;16.16;55.13;99512.05;1644010;85;21056;-66
2021/09/03 09:03:49;;;;;;;1.57;1.00;;;;;;;16.33;55.18;99512.85;1729968;82;21918;-66
2021/09/03 09:06:22;;;;;;;3.85;0.80;;;;;;;16.57;55.71;99515.78;1728419;82;21579;-68
2021/09/03 09:09:08;;;;;;;1.72;0.68;;;;;;;16.75;53.85;99525.34;1728466;82;21055;-69
2021/09/03 09:11:31;;;;;;;4.80;1.00;;;;;;;16.88;52.68;99516.31;1722042;82;21135;-71
2021/09/03 09:13:59;;;;;;;1.65;0.60;;;;;;;17.00;53.20;99515.95;1731779;82;21019;-71
2021/09/03 09:16:31;;;;;;;2.02;0.98;;;;;;;17.08;52.73;99509.38;1730269;82;21004;-68
2021/09/03 09:19:05;;;;;;;4.05;1.05;;;;;;;17.07;51.52;99506.38;1728786;82;21508;-69
2021/09/03 09:21:38;;;;;;;7.03;1.05;;;;;;;17.04;51.96;99498.77;1728878;81;21047;-65
2021/09/03 09:24:09;;;;;;;;;;;;;;;17.06;52.60;99499.19;1639376;86;21558;-67
2021/09/03 09:26:47;;;;;;;2.80;0.82;;;;;;;17.13;52.69;99494.39;1664992;85;20172;-68
2021/09/03 09:29:32;;;;;;;2.95;0.60;;;;;;;17.10;51.42;99499.30;1664723;85;25812;-70
2021/09/03 09:32:10;;;;;;;4.33;0.80;;;;;;;17.02;51.84;99495.53;1731020;82;21114;-65
2021/09/03 09:34:40;;;;;;;5.17;1.10;;;;;;;17.00;51.37;99496.48;1702611;82;21570;-66
2021/09/03 09:37:13;;;;;;;1.95;0.90;;;;;;;16.92;51.42;99499.70;1729849;82;20992;-69
2021/09/03 09:39:56;;;;;;;5.03;1.37;;;;;;;16.95;52.04;99503.14;1712421;82;21106;-69
2021/09/03 09:42:29;;;;;;;2.90;0.88;;;;;;;17.07;52.35;99497.22;1731604;82;21733;-65
2021/09/03 09:45:10;;;;;;;2.22;0.98;;;;;;;17.19;51.81;99486.56;1731789;82;21098;-66
2021/09/03 09:47:40;;;;;;;2.75;1.02;;;;;;;17.26;53.09;99489.50;1731251;82;21031;-67
2021/09/03 09:50:27;;;;;;;5.17;0.98;;;;;;;17.34;51.85;99487.65;1701131;82;21098;-66
2021/09/03 09:53:06;;;;;;;2.17;1.20;;;;;;;17.39;51.87;99485.39;1726188;82;21114;-71
2021/09/03 09:55:37;;;;;;;2.50;0.75;;;;;;;17.40;50.88;99486.17;1705704;82;21161;-68
2021/09/03 09:58:04;;;;;;;3.72;1.00;;;;;;;17.37;51.87;99489.12;1723762;82;21035;-65
2021/09/03 10:00:35;;;;;;;1.32;1.10;;;;;;;17.43;51.44;99488.82;1729311;82;21582;-67
2021/09/03 10:03:03;;;;;;;6.30;1.27;;;;;;;17.47;50.79;99477.97;1702950;82;21034;-67
2021/09/03 10:05:30;;;;;;;3.95;1.37;;;;;;;17.45;49.97;99480.30;1730083;82;21016;-67
2021/09/03 10:07:58;;;;;;;2.25;1.00;;;;;;;17.48;50.77;99468.45;1728308;82;21574;-68
2021/09/03 10:10:26;;;;;;;3.25;1.05;;;;;;;17.60;51.27;99475.02;1730417;81;21047;-68
2021/09/03 10:12:53;;;;;;;3.12;1.15;;;;;;;17.74;51.00;99464.12;1730768;82;21102;-68
2021/09/03 10:15:19;;;;;;;2.15;1.17;;;;;;;17.87;49.99;99454.20;1727822;82;21542;-67
2021/09/03 10:17:47;;;;;;;1.60;0.90;;;;;;;17.88;49.20;99465.55;1730434;82;20980;-69
2021/09/03 10:20:16;;;;;;;13.65;1.57;;;;;;;17.92;49.14;99453.89;1701836;82;21698;-69
2021/09/03 10:22:46;;;;;;;2.52;1.27;;;;;;;17.94;49.24;99459.91;1728232;82;21090;-69
2021/09/03 10:25:15;;;;;;;4.80;1.70;;;;;;;17.89;47.39;99458.22;1729742;82;21015;-69
2021/09/03 10:27:42;;;;;;;8.90;1.07;;;;;;;17.80;48.17;99448.50;1731658;82;21492;-65
2021/09/03 10:30:15;;;;;;;12.85;2.47;;;;;;;17.85;48.82;99449.00;1696253;82;21050;-68
2021/09/03 10:32:42;;;;;;;3.42;1.57;;;;;;;17.95;48.21;99441.19;1732779;82;21718;-64
2021/09/03 10:35:20;;;;;;;2.12;1.07;;;;;;;18.06;47.93;99438.59;1728904;82;21019;-67
2021/09/03 10:37:47;;;;;;;7.33;1.70;;;;;;;18.09;47.88;99440.62;1717091;82;21047;-66
2021/09/03 10:40:27;;;;;;;8.93;1.80;;;;;;;18.13;47.67;99433.95;1704169;81;21000;-66
2021/09/03 10:42:59;;;;;;;3.33;1.40;;;;;;;18.16;49.04;99440.77;1730079;81;21089;-65
2021/09/03 10:45:34;;;;;;;5.72;1.55;;;;;;;18.18;48.03;99441.21;1739058;81;21755;-67
2021/09/03 10:48:04;;;;;;;5.15;1.72;;;;;;;18.08;47.37;99440.42;1739274;81;21090;-66
2021/09/03 10:50:37;;;;;;;9.08;1.50;;;;;;;18.05;47.39;99439.78;1733683;81;21047;-68
2021/09/03 10:53:10;;;;;;;2.35;1.50;;;;;;;18.06;48.39;99443.58;1734912;81;21164;-65
2021/09/03 10:55:54;;;;;;;7.42;1.60;;;;;;;18.10;48.04;99433.89;1736337;81;21435;-65
2021/09/03 10:58:54;;;;;;;2.67;1.37;;;;;;;18.11;48.96;99432.70;1735795;81;21943;-65
2021/09/03 11:01:27;;;;;;;7.15;1.90;;;;;;;18.19;48.68;99423.30;1734108;81;21050;-64
2021/09/03 11:04:12;;;;;;;4.95;1.55;;;;;;;18.30;49.16;99426.26;1737766;81;21058;-67
2021/09/03 11:06:41;;;;;;;3.02;1.70;;;;;;;18.43;49.61;99428.23;1718359;81;21038;-65
2021/09/03 11:09:20;;;;;;;4.78;1.60;;;;;;;18.57;47.45;99425.42;1711308;81;21043;-67
2021/09/03 11:12:05;;;;;;;3.60;1.47;;;;;;;18.65;46.98;99422.95;1738678;81;21070;-67
2021/09/03 11:14:32;;;;;;;6.83;1.60;;;;;;;18.71;47.59;99420.03;1738156;81;21082;-66
2021/09/03 11:17:08;;;;;;;7.20;1.67;;;;;;;18.80;47.19;99414.78;1739420;81;21082;-70
2021/09/03 11:19:46;;;;;;;4.67;1.87;;;;;;;18.91;46.93;99421.30;1733799;81;21018;-71
2021/09/03 11:22:20;;;;;;;3.02;1.67;;;;;;;19.00;46.15;99418.22;1739741;81;21016;-69
2021/09/03 11:24:50;;;;;;;9.60;1.65;;;;;;;19.06;46.08;99408.89;1711831;81;21050;-69
2021/09/03 11:27:23;;;;;;;4.45;2.02;;;;;;;19.04;44.57;99391.74;1738970;81;21014;-67
2021/09/03 11:29:53;;;;;;;3.35;1.70;;;;;;;18.94;46.13;99395.41;1737923;81;21026;-70
2021/09/03 11:32:29;;;;;;;4.03;1.77;;;;;;;18.87;46.90;99396.70;1736110;81;21538;-67
2021/09/03 11:35:06;;;;;;;;;;;;;;;18.76;46.39;99391.02;1740119;81;21598;-69
2021/09/03 11:37:46;;;;;;;5.35;1.40;;;;;;;18.69;47.56;99394.52;1735304;81;20618;-72
2021/09/03 11:40:32;;;;;;;4.22;1.72;;;;;;;18.69;47.25;99386.14;1731059;81;21081;-68
2021/09/03 11:43:02;;;;;;;5.67;1.82;;;;;;;18.66;47.23;99392.48;1733855;81;21053;-67
2021/09/03 11:45:32;;;;;;;3.80;1.70;;;;;;;18.54;46.63;99384.34;1734804;81;21070;-69
2021/09/03 11:48:06;;;;;;;3.08;1.80;;;;;;;18.49;47.35;99377.91;1739198;81;21106;-68